Bagdad, Florida
Current Conditions -  °F | °C
As of 8:56 AM on Friday 31 Oct 2014 (Local Time) from KNDZ Reporting Station
Few Clouds Few Clouds  
Wind Chill: 57°   Ceiling: Unl
Heat Index: 57°   Visibility: 10mi
Dew Point: 45°   Wind: 3mph
Humidity: 64%   Direction: 300°WNW
Pressure: 30.02"   Gusts: NA
Location:  30.6°N, 87.04°W
Report Text: KNDZ 311356Z 30003KT 10SM FEW047 14/07 A3002 RMK AO2 SLP152 T01390072 $
Loading
Personal Weather Stations






























Interactive Weather Map New forecast layout! Learn more

10-Day Weather Forecast

Advertisements
Track Severe Weather on mobile